sensor_id;sensor_type;location;lat;lon;timestamp;temperature;humidity
31747;DHT22;18319;48.974;8.462;2023-03-01T00:01:37;0.20;99.90
31747;DHT22;18319;48.974;8.462;2023-03-01T00:04:03;0.20;99.90
31747;DHT22;18319;48.974;8.462;2023-03-01T00:06:30;0.20;99.90
31747;DHT22;18319;48.974;8.462;2023-03-01T00:08:57;0.20;99.90
31747;DHT22;18319;48.974;8.462;2023-03-01T00:11:25;0.20;99.90
31747;DHT22;18319;48.974;8.462;2023-03-01T00:13:55;0.20;99.90
31747;DHT22;18319;48.974;8.462;2023-03-01T00:16:24;0.10;99.90
31747;DHT22;18319;48.974;8.462;2023-03-01T00:18:51;0.10;99.90
31747;DHT22;18319;48.974;8.462;2023-03-01T00:21:20;0.10;99.90
31747;DHT22;18319;48.974;8.462;2023-03-01T00:23:47;0.10;99.90
31747;DHT22;18319;48.974;8.462;2023-03-01T00:26:16;0.10;99.90
31747;DHT22;18319;48.974;8.462;2023-03-01T00:28:43;0.10;99.90
31747;DHT22;18319;48.974;8.462;2023-03-01T00:31:12;0.10;99.90
31747;DHT22;18319;48.974;8.462;2023-03-01T00:33:39;0.10;99.90
31747;DHT22;18319;48.974;8.462;2023-03-01T00:36:07;0.10;99.90
31747;DHT22;18319;48.974;8.462;2023-03-01T00:38:35;0.10;99.90
31747;DHT22;18319;48.974;8.462;2023-03-01T00:41:04;0.10;99.90
31747;DHT22;18319;48.974;8.462;2023-03-01T00:43:31;0.10;99.90
31747;DHT22;18319;48.974;8.462;2023-03-01T00:46:03;0.10;99.90
31747;DHT22;18319;48.974;8.462;2023-03-01T00:48:31;0.10;99.90
31747;DHT22;18319;48.974;8.462;2023-03-01T00:51:05;0.10;99.90
31747;DHT22;18319;48.974;8.462;2023-03-01T00:53:32;0.10;99.90
31747;DHT22;18319;48.974;8.462;2023-03-01T00:55:58;0.10;99.90
31747;DHT22;18319;48.974;8.462;2023-03-01T00:58:25;0.10;99.90
31747;DHT22;18319;48.974;8.462;2023-03-01T01:00:52;0.10;99.90
31747;DHT22;18319;48.974;8.462;2023-03-01T01:03:20;0.10;99.90
31747;DHT22;18319;48.974;8.462;2023-03-01T01:05:48;0.10;99.90
31747;DHT22;18319;48.974;8.462;2023-03-01T01:08:15;0.00;99.90
31747;DHT22;18319;48.974;8.462;2023-03-01T01:10:43;0.00;99.90
31747;DHT22;18319;48.974;8.462;2023-03-01T01:13:10;0.00;99.90
31747;DHT22;18319;48.974;8.462;2023-03-01T01:15:38;0.00;99.90
31747;DHT22;18319;48.974;8.462;2023-03-01T01:18:05;0.00;99.90
31747;DHT22;18319;48.974;8.462;2023-03-01T01:20:32;-0.10;99.90
31747;DHT22;18319;48.974;8.462;2023-03-01T01:23:05;-0.10;99.90
31747;DHT22;18319;48.974;8.462;2023-03-01T01:25:34;0.00;99.90
31747;DHT22;18319;48.974;8.462;2023-03-01T01:28:01;0.00;99.90
31747;DHT22;18319;48.974;8.462;2023-03-01T01:30:28;-0.10;99.90
31747;DHT22;18319;48.974;8.462;2023-03-01T01:32:54;-0.10;99.90
31747;DHT22;18319;48.974;8.462;2023-03-01T01:35:21;-0.10;99.90
31747;DHT22;18319;48.974;8.462;2023-03-01T01:37:48;-0.10;99.90
31747;DHT22;18319;48.974;8.462;2023-03-01T01:40:16;-0.10;99.90
31747;DHT22;18319;48.974;8.462;2023-03-01T01:42:42;-0.10;99.90
31747;DHT22;18319;48.974;8.462;2023-03-01T01:45:31;-0.10;99.90
31747;DHT22;18319;48.974;8.462;2023-03-01T01:48:02;-0.10;99.90
31747;DHT22;18319;48.974;8.462;2023-03-01T01:50:31;-0.10;99.90
31747;DHT22;18319;48.974;8.462;2023-03-01T01:53:06;-0.10;99.90
31747;DHT22;18319;48.974;8.462;2023-03-01T01:55:37;-0.20;99.90
31747;DHT22;18319;48.974;8.462;2023-03-01T01:58:07;-0.20;99.90
31747;DHT22;18319;48.974;8.462;2023-03-01T02:00:35;-0.20;99.90
31747;DHT22;18319;48.974;8.462;2023-03-01T02:03:07;-0.20;99.90
31747;DHT22;18319;48.974;8.462;2023-03-01T02:05:38;-0.30;99.90
31747;DHT22;18319;48.974;8.462;2023-03-01T02:08:10;-0.40;99.90
31747;DHT22;18319;48.974;8.462;2023-03-01T02:10:39;-0.30;99.90
31747;DHT22;18319;48.974;8.462;2023-03-01T02:13:07;-0.60;99.90
31747;DHT22;18319;48.974;8.462;2023-03-01T02:15:36;-0.30;99.90
31747;DHT22;18319;48.974;8.462;2023-03-01T02:18:04;-0.40;99.90
31747;DHT22;18319;48.974;8.462;2023-03-01T02:20:35;-0.40;99.90
31747;DHT22;18319;48.974;8.462;2023-03-01T02:23:03;-0.40;99.90
31747;DHT22;18319;48.974;8.462;2023-03-01T02:25:37;-0.40;99.90
31747;DHT22;18319;48.974;8.462;2023-03-01T02:30:40;-0.40;99.90
31747;DHT22;18319;48.974;8.462;2023-03-01T02:33:27;-0.40;99.90
31747;DHT22;18319;48.974;8.462;2023-03-01T02:35:54;-0.40;99.90
31747;DHT22;18319;48.974;8.462;2023-03-01T02:38:22;-0.40;99.90
31747;DHT22;18319;48.974;8.462;2023-03-01T02:40:50;-0.40;99.90
31747;DHT22;18319;48.974;8.462;2023-03-01T02:43:19;-0.50;99.90
31747;DHT22;18319;48.974;8.462;2023-03-01T02:45:52;-0.50;99.90
31747;DHT22;18319;48.974;8.462;2023-03-01T02:48:19;-0.50;99.90
31747;DHT22;18319;48.974;8.462;2023-03-01T02:51:01;-0.50;99.90
31747;DHT22;18319;48.974;8.462;2023-03-01T02:53:38;-0.50;99.90
31747;DHT22;18319;48.974;8.462;2023-03-01T02:56:06;-0.50;99.90
31747;DHT22;18319;48.974;8.462;2023-03-01T02:58:38;-0.60;99.90
31747;DHT22;18319;48.974;8.462;2023-03-01T03:01:12;-0.60;99.90
31747;DHT22;18319;48.974;8.462;2023-03-01T03:03:40;-0.60;99.90
31747;DHT22;18319;48.974;8.462;2023-03-01T03:06:07;-0.60;99.90
31747;DHT22;18319;48.974;8.462;2023-03-01T03:08:34;-0.60;99.90
31747;DHT22;18319;48.974;8.462;2023-03-01T03:11:01;-0.60;99.90
31747;DHT22;18319;48.974;8.462;2023-03-01T03:13:28;-0.60;99.90
31747;DHT22;18319;48.974;8.462;2023-03-01T03:15:55;-0.60;99.90
31747;DHT22;18319;48.974;8.462;2023-03-01T03:18:24;-0.70;99.90
31747;DHT22;18319;48.974;8.462;2023-03-01T03:20:52;-0.70;99.90
31747;DHT22;18319;48.974;8.462;2023-03-01T03:23:20;-0.70;99.90
31747;DHT22;18319;48.974;8.462;2023-03-01T03:25:48;-0.70;99.90
31747;DHT22;18319;48.974;8.462;2023-03-01T03:28:16;-0.70;99.90
31747;DHT22;18319;48.974;8.462;2023-03-01T03:30:43;-0.70;99.90
31747;DHT22;18319;48.974;8.462;2023-03-01T03:33:11;-0.70;99.90
31747;DHT22;18319;48.974;8.462;2023-03-01T03:35:43;-0.80;99.90
31747;DHT22;18319;48.974;8.462;2023-03-01T03:38:11;-0.80;99.90
31747;DHT22;18319;48.974;8.462;2023-03-01T03:40:44;-0.80;99.90
31747;DHT22;18319;48.974;8.462;2023-03-01T03:43:13;-0.80;99.90
31747;DHT22;18319;48.974;8.462;2023-03-01T03:45:40;-0.80;99.90
31747;DHT22;18319;48.974;8.462;2023-03-01T03:48:08;-0.80;99.90
31747;DHT22;18319;48.974;8.462;2023-03-01T03:50:36;-0.80;99.90
31747;DHT22;18319;48.974;8.462;2023-03-01T03:53:07;-0.90;99.90
31747;DHT22;18319;48.974;8.462;2023-03-01T03:55:34;-0.90;99.90
31747;DHT22;18319;48.974;8.462;2023-03-01T03:58:05;-0.90;99.90
31747;DHT22;18319;48.974;8.462;2023-03-01T04:00:33;-0.90;99.90
31747;DHT22;18319;48.974;8.462;2023-03-01T04:03:00;-0.90;99.90
31747;DHT22;18319;48.974;8.462;2023-03-01T04:05:27;-0.90;99.90
31747;DHT22;18319;48.974;8.462;2023-03-01T04:07:54;-0.90;99.90
31747;DHT22;18319;48.974;8.462;2023-03-01T04:10:29;-1.00;99.90
31747;DHT22;18319;48.974;8.462;2023-03-01T04:12:56;-1.00;99.90
31747;DHT22;18319;48.974;8.462;2023-03-01T04:15:25;-0.90;99.90
31747;DHT22;18319;48.974;8.462;2023-03-01T04:17:53;-1.00;99.90
31747;DHT22;18319;48.974;8.462;2023-03-01T04:20:23;-1.00;99.90
31747;DHT22;18319;48.974;8.462;2023-03-01T04:22:51;-1.00;99.90
31747;DHT22;18319;48.974;8.462;2023-03-01T04:25:18;-1.00;99.90
31747;DHT22;18319;48.974;8.462;2023-03-01T04:27:46;-1.00;99.90
31747;DHT22;18319;48.974;8.462;2023-03-01T04:30:13;-1.00;99.90
31747;DHT22;18319;48.974;8.462;2023-03-01T04:32:40;-1.00;99.90
31747;DHT22;18319;48.974;8.462;2023-03-01T04:35:08;-1.10;99.90
31747;DHT22;18319;48.974;8.462;2023-03-01T04:37:35;-1.00;99.90
31747;DHT22;18319;48.974;8.462;2023-03-01T04:40:02;-1.10;99.90
31747;DHT22;18319;48.974;8.462;2023-03-01T04:42:37;-1.10;99.90
31747;DHT22;18319;48.974;8.462;2023-03-01T04:45:07;-1.10;99.90
31747;DHT22;18319;48.974;8.462;2023-03-01T04:47:39;-1.10;99.90
31747;DHT22;18319;48.974;8.462;2023-03-01T04:50:07;-1.10;99.90
31747;DHT22;18319;48.974;8.462;2023-03-01T04:52:34;-1.10;99.90
31747;DHT22;18319;48.974;8.462;2023-03-01T04:55:01;-1.10;99.90
31747;DHT22;18319;48.974;8.462;2023-03-01T04:57:29;-1.10;99.90
31747;DHT22;18319;48.974;8.462;2023-03-01T04:59:55;-1.10;99.90
31747;DHT22;18319;48.974;8.462;2023-03-01T05:02:24;-1.10;99.90
31747;DHT22;18319;48.974;8.462;2023-03-01T05:04:50;-1.20;99.90
31747;DHT22;18319;48.974;8.462;2023-03-01T05:07:17;-1.20;99.90
31747;DHT22;18319;48.974;8.462;2023-03-01T05:09:45;-1.10;99.90
31747;DHT22;18319;48.974;8.462;2023-03-01T05:12:12;-1.20;99.90
31747;DHT22;18319;48.974;8.462;2023-03-01T05:14:39;-1.10;99.90
31747;DHT22;18319;48.974;8.462;2023-03-01T05:17:06;-1.20;99.90
31747;DHT22;18319;48.974;8.462;2023-03-01T05:19:34;-1.20;99.90
31747;DHT22;18319;48.974;8.462;2023-03-01T05:22:01;-1.20;99.90
31747;DHT22;18319;48.974;8.462;2023-03-01T05:24:29;-1.20;99.90
31747;DHT22;18319;48.974;8.462;2023-03-01T05:26:56;-1.20;99.90
31747;DHT22;18319;48.974;8.462;2023-03-01T05:29:24;-1.20;99.90
31747;DHT22;18319;48.974;8.462;2023-03-01T05:31:52;-1.20;99.90
31747;DHT22;18319;48.974;8.462;2023-03-01T05:34:23;-1.20;99.90
31747;DHT22;18319;48.974;8.462;2023-03-01T05:36:52;-1.20;99.90
31747;DHT22;18319;48.974;8.462;2023-03-01T05:39:20;-1.20;99.90
31747;DHT22;18319;48.974;8.462;2023-03-01T05:41:48;-1.40;99.90
31747;DHT22;18319;48.974;8.462;2023-03-01T05:44:15;-1.20;99.90
31747;DHT22;18319;48.974;8.462;2023-03-01T05:46:41;-1.20;99.90
31747;DHT22;18319;48.974;8.462;2023-03-01T05:49:08;-1.40;99.90
31747;DHT22;18319;48.974;8.462;2023-03-01T05:51:35;-1.20;99.90
31747;DHT22;18319;48.974;8.462;2023-03-01T05:54:03;-1.20;99.90
31747;DHT22;18319;48.974;8.462;2023-03-01T05:56:32;-1.20;99.90
31747;DHT22;18319;48.974;8.462;2023-03-01T05:58:59;-1.20;99.90
31747;DHT22;18319;48.974;8.462;2023-03-01T06:01:26;-1.20;99.90
31747;DHT22;18319;48.974;8.462;2023-03-01T06:03:53;-1.20;99.90
31747;DHT22;18319;48.974;8.462;2023-03-01T06:06:20;-1.20;99.90
31747;DHT22;18319;48.974;8.462;2023-03-01T06:08:46;-1.20;99.90
31747;DHT22;18319;48.974;8.462;2023-03-01T06:11:14;-1.20;99.90
31747;DHT22;18319;48.974;8.462;2023-03-01T06:13:41;-1.20;99.90
31747;DHT22;18319;48.974;8.462;2023-03-01T06:16:08;-1.10;99.90
31747;DHT22;18319;48.974;8.462;2023-03-01T06:18:36;-1.10;99.90
31747;DHT22;18319;48.974;8.462;2023-03-01T06:21:03;-1.10;99.90
31747;DHT22;18319;48.974;8.462;2023-03-01T06:23:30;-1.10;99.90
31747;DHT22;18319;48.974;8.462;2023-03-01T06:25:57;-1.10;99.90
31747;DHT22;18319;48.974;8.462;2023-03-01T06:28:25;-1.10;99.90
31747;DHT22;18319;48.974;8.462;2023-03-01T06:30:52;-1.10;99.90
31747;DHT22;18319;48.974;8.462;2023-03-01T06:33:19;-1.00;99.90
31747;DHT22;18319;48.974;8.462;2023-03-01T06:35:49;-1.00;99.90
31747;DHT22;18319;48.974;8.462;2023-03-01T06:38:16;-1.10;99.90
31747;DHT22;18319;48.974;8.462;2023-03-01T06:40:44;-1.00;99.90
31747;DHT22;18319;48.974;8.462;2023-03-01T06:43:11;-1.00;99.90
31747;DHT22;18319;48.974;8.462;2023-03-01T06:45:39;-0.90;99.90
31747;DHT22;18319;48.974;8.462;2023-03-01T06:48:07;-0.90;99.90
31747;DHT22;18319;48.974;8.462;2023-03-01T06:50:34;-0.90;99.90
31747;DHT22;18319;48.974;8.462;2023-03-01T06:53:02;-0.90;99.90
31747;DHT22;18319;48.974;8.462;2023-03-01T06:55:29;-0.90;99.90
31747;DHT22;18319;48.974;8.462;2023-03-01T07:00:25;-0.80;99.90
31747;DHT22;18319;48.974;8.462;2023-03-01T07:02:53;-0.80;99.90
31747;DHT22;18319;48.974;8.462;2023-03-01T07:05:20;-0.70;99.90
31747;DHT22;18319;48.974;8.462;2023-03-01T07:07:47;-0.70;99.90
31747;DHT22;18319;48.974;8.462;2023-03-01T07:10:13;-0.70;99.90
31747;DHT22;18319;48.974;8.462;2023-03-01T07:12:40;-0.60;99.90
31747;DHT22;18319;48.974;8.462;2023-03-01T07:15:09;-0.60;99.90
31747;DHT22;18319;48.974;8.462;2023-03-01T07:17:36;-0.60;99.90
31747;DHT22;18319;48.974;8.462;2023-03-01T07:20:05;-0.50;99.90
31747;DHT22;18319;48.974;8.462;2023-03-01T07:22:32;-0.50;99.90
31747;DHT22;18319;48.974;8.462;2023-03-01T07:24:59;-0.40;99.90
31747;DHT22;18319;48.974;8.462;2023-03-01T07:27:25;-0.40;99.90
31747;DHT22;18319;48.974;8.462;2023-03-01T07:29:52;-0.30;99.90
31747;DHT22;18319;48.974;8.462;2023-03-01T07:32:19;-0.30;99.90
31747;DHT22;18319;48.974;8.462;2023-03-01T07:34:46;-0.30;99.90
31747;DHT22;18319;48.974;8.462;2023-03-01T07:37:14;-0.20;99.90
31747;DHT22;18319;48.974;8.462;2023-03-01T07:39:41;-0.10;99.90
31747;DHT22;18319;48.974;8.462;2023-03-01T07:42:07;-0.10;99.90
31747;DHT22;18319;48.974;8.462;2023-03-01T07:44:34;-0.10;99.90
31747;DHT22;18319;48.974;8.462;2023-03-01T07:47:02;0.00;99.90
31747;DHT22;18319;48.974;8.462;2023-03-01T07:49:29;0.10;99.90
31747;DHT22;18319;48.974;8.462;2023-03-01T07:51:55;0.10;99.90
31747;DHT22;18319;48.974;8.462;2023-03-01T07:54:24;0.20;99.90
31747;DHT22;18319;48.974;8.462;2023-03-01T07:56:51;0.30;99.90
31747;DHT22;18319;48.974;8.462;2023-03-01T07:59:20;0.40;99.90
31747;DHT22;18319;48.974;8.462;2023-03-01T08:01:46;0.50;99.90
31747;DHT22;18319;48.974;8.462;2023-03-01T08:04:13;0.50;99.90
31747;DHT22;18319;48.974;8.462;2023-03-01T08:06:40;0.60;99.90
31747;DHT22;18319;48.974;8.462;2023-03-01T08:09:07;0.70;99.90
31747;DHT22;18319;48.974;8.462;2023-03-01T08:11:36;0.70;99.90
31747;DHT22;18319;48.974;8.462;2023-03-01T08:14:03;0.80;99.90
31747;DHT22;18319;48.974;8.462;2023-03-01T08:16:29;0.80;99.90
31747;DHT22;18319;48.974;8.462;2023-03-01T08:18:57;0.90;99.90
31747;DHT22;18319;48.974;8.462;2023-03-01T08:21:29;0.90;99.90
31747;DHT22;18319;48.974;8.462;2023-03-01T08:23:56;0.90;99.90
31747;DHT22;18319;48.974;8.462;2023-03-01T08:26:23;1.00;99.90
31747;DHT22;18319;48.974;8.462;2023-03-01T08:28:51;1.10;99.90
31747;DHT22;18319;48.974;8.462;2023-03-01T08:31:20;1.20;99.90
31747;DHT22;18319;48.974;8.462;2023-03-01T08:33:49;1.20;99.90
31747;DHT22;18319;48.974;8.462;2023-03-01T08:36:20;1.10;99.90
31747;DHT22;18319;48.974;8.462;2023-03-01T08:38:47;1.10;99.90
31747;DHT22;18319;48.974;8.462;2023-03-01T08:41:15;1.20;99.90
31747;DHT22;18319;48.974;8.462;2023-03-01T08:43:42;1.20;99.90
31747;DHT22;18319;48.974;8.462;2023-03-01T08:46:10;1.30;99.90
31747;DHT22;18319;48.974;8.462;2023-03-01T08:48:38;1.30;99.90
31747;DHT22;18319;48.974;8.462;2023-03-01T08:51:09;1.30;99.90
31747;DHT22;18319;48.974;8.462;2023-03-01T08:53:36;1.30;99.90
31747;DHT22;18319;48.974;8.462;2023-03-01T08:56:03;1.40;99.90
31747;DHT22;18319;48.974;8.462;2023-03-01T08:58:30;1.40;99.90
31747;DHT22;18319;48.974;8.462;2023-03-01T09:00:57;1.40;99.90
31747;DHT22;18319;48.974;8.462;2023-03-01T09:03:25;1.40;99.90
31747;DHT22;18319;48.974;8.462;2023-03-01T09:05:52;1.50;99.90
31747;DHT22;18319;48.974;8.462;2023-03-01T09:08:19;1.60;99.90
31747;DHT22;18319;48.974;8.462;2023-03-01T09:10:46;1.70;99.90
31747;DHT22;18319;48.974;8.462;2023-03-01T09:13:13;1.80;99.90
31747;DHT22;18319;48.974;8.462;2023-03-01T09:15:39;1.90;99.90
31747;DHT22;18319;48.974;8.462;2023-03-01T09:18:06;1.90;99.90
31747;DHT22;18319;48.974;8.462;2023-03-01T09:20:34;1.90;99.90
31747;DHT22;18319;48.974;8.462;2023-03-01T09:23:01;2.00;99.90
31747;DHT22;18319;48.974;8.462;2023-03-01T09:25:28;2.10;99.90
31747;DHT22;18319;48.974;8.462;2023-03-01T09:27:55;2.20;99.90
31747;DHT22;18319;48.974;8.462;2023-03-01T09:30:21;2.30;99.90
31747;DHT22;18319;48.974;8.462;2023-03-01T09:32:49;2.30;99.90
31747;DHT22;18319;48.974;8.462;2023-03-01T09:35:16;2.40;99.90
31747;DHT22;18319;48.974;8.462;2023-03-01T09:37:45;2.40;99.90
31747;DHT22;18319;48.974;8.462;2023-03-01T09:40:15;2.60;99.90
31747;DHT22;18319;48.974;8.462;2023-03-01T09:42:48;2.70;99.90
31747;DHT22;18319;48.974;8.462;2023-03-01T09:45:23;2.80;99.90
31747;DHT22;18319;48.974;8.462;2023-03-01T09:47:52;2.80;99.90
31747;DHT22;18319;48.974;8.462;2023-03-01T09:50:21;2.90;99.90
31747;DHT22;18319;48.974;8.462;2023-03-01T09:52:58;3.00;99.90
31747;DHT22;18319;48.974;8.462;2023-03-01T09:55:31;3.00;99.90
31747;DHT22;18319;48.974;8.462;2023-03-01T09:58:04;3.00;99.90
31747;DHT22;18319;48.974;8.462;2023-03-01T10:00:38;3.10;99.90
31747;DHT22;18319;48.974;8.462;2023-03-01T10:03:13;3.10;99.90
31747;DHT22;18319;48.974;8.462;2023-03-01T10:05:49;3.20;99.90
31747;DHT22;18319;48.974;8.462;2023-03-01T10:08:38;3.20;99.90
31747;DHT22;18319;48.974;8.462;2023-03-01T10:11:19;3.20;99.90
31747;DHT22;18319;48.974;8.462;2023-03-01T10:13:50;3.20;99.90
31747;DHT22;18319;48.974;8.462;2023-03-01T10:16:26;3.30;99.90
31747;DHT22;18319;48.974;8.462;2023-03-01T10:18:56;3.30;99.90
31747;DHT22;18319;48.974;8.462;2023-03-01T10:21:27;3.40;99.90
31747;DHT22;18319;48.974;8.462;2023-03-01T10:23:59;3.50;99.90
31747;DHT22;18319;48.974;8.462;2023-03-01T10:26:41;3.60;99.90
31747;DHT22;18319;48.974;8.462;2023-03-01T10:29:12;3.70;99.90
31747;DHT22;18319;48.974;8.462;2023-03-01T10:31:42;3.80;99.90
31747;DHT22;18319;48.974;8.462;2023-03-01T10:34:14;3.80;99.90
31747;DHT22;18319;48.974;8.462;2023-03-01T10:36:43;3.90;99.90
31747;DHT22;18319;48.974;8.462;2023-03-01T10:39:15;3.90;99.90
31747;DHT22;18319;48.974;8.462;2023-03-01T10:41:59;4.00;99.90
31747;DHT22;18319;48.974;8.462;2023-03-01T10:44:44;4.10;99.90
31747;DHT22;18319;48.974;8.462;2023-03-01T10:47:17;4.20;99.90
31747;DHT22;18319;48.974;8.462;2023-03-01T10:49:58;4.20;99.90
31747;DHT22;18319;48.974;8.462;2023-03-01T10:52:28;4.20;99.90
31747;DHT22;18319;48.974;8.462;2023-03-01T10:54:58;4.30;99.90
31747;DHT22;18319;48.974;8.462;2023-03-01T10:57:30;4.40;99.90
31747;DHT22;18319;48.974;8.462;2023-03-01T11:00:22;4.40;99.90
31747;DHT22;18319;48.974;8.462;2023-03-01T11:02:51;4.50;99.90
31747;DHT22;18319;48.974;8.462;2023-03-01T11:05:23;4.50;99.90
31747;DHT22;18319;48.974;8.462;2023-03-01T11:07:51;4.60;99.90
31747;DHT22;18319;48.974;8.462;2023-03-01T11:10:22;4.60;99.90
31747;DHT22;18319;48.974;8.462;2023-03-01T11:12:51;4.70;99.90
31747;DHT22;18319;48.974;8.462;2023-03-01T11:15:25;4.70;99.90
31747;DHT22;18319;48.974;8.462;2023-03-01T11:17:52;4.80;99.90
31747;DHT22;18319;48.974;8.462;2023-03-01T11:20:29;4.90;99.90
31747;DHT22;18319;48.974;8.462;2023-03-01T11:22:59;5.00;99.90
31747;DHT22;18319;48.974;8.462;2023-03-01T11:25:31;5.00;99.90
31747;DHT22;18319;48.974;8.462;2023-03-01T11:28:00;5.00;99.90
31747;DHT22;18319;48.974;8.462;2023-03-01T11:30:32;5.00;99.90
31747;DHT22;18319;48.974;8.462;2023-03-01T11:33:11;5.10;99.90
31747;DHT22;18319;48.974;8.462;2023-03-01T11:35:44;5.10;99.90
31747;DHT22;18319;48.974;8.462;2023-03-01T11:38:22;5.10;99.90
31747;DHT22;18319;48.974;8.462;2023-03-01T11:40:54;5.20;99.90
31747;DHT22;18319;48.974;8.462;2023-03-01T11:43:32;5.20;99.90
31747;DHT22;18319;48.974;8.462;2023-03-01T11:46:29;5.20;99.90
31747;DHT22;18319;48.974;8.462;2023-03-01T11:49:14;5.30;99.90
31747;DHT22;18319;48.974;8.462;2023-03-01T11:51:50;5.30;99.90
31747;DHT22;18319;48.974;8.462;2023-03-01T11:54:29;5.40;99.90
31747;DHT22;18319;48.974;8.462;2023-03-01T11:57:03;5.40;99.90
31747;DHT22;18319;48.974;8.462;2023-03-01T11:59:50;5.40;99.90
31747;DHT22;18319;48.974;8.462;2023-03-01T12:02:34;5.40;99.90
31747;DHT22;18319;48.974;8.462;2023-03-01T12:05:19;5.50;99.90
31747;DHT22;18319;48.974;8.462;2023-03-01T12:07:53;5.60;99.90
31747;DHT22;18319;48.974;8.462;2023-03-01T12:10:27;5.50;99.90
31747;DHT22;18319;48.974;8.462;2023-03-01T12:13:18;5.60;99.90
31747;DHT22;18319;48.974;8.462;2023-03-01T12:16:03;5.60;99.90
31747;DHT22;18319;48.974;8.462;2023-03-01T12:21:53;5.70;99.90
31747;DHT22;18319;48.974;8.462;2023-03-01T12:24:43;5.70;99.90
31747;DHT22;18319;48.974;8.462;2023-03-01T12:27:29;5.80;99.90
31747;DHT22;18319;48.974;8.462;2023-03-01T12:30:07;5.80;99.90
31747;DHT22;18319;48.974;8.462;2023-03-01T12:32:48;5.90;99.90
31747;DHT22;18319;48.974;8.462;2023-03-01T12:35:49;6.00;99.90
31747;DHT22;18319;48.974;8.462;2023-03-01T12:38:31;6.00;99.90
31747;DHT22;18319;48.974;8.462;2023-03-01T12:41:29;6.00;99.90
31747;DHT22;18319;48.974;8.462;2023-03-01T12:44:05;6.00;99.90
31747;DHT22;18319;48.974;8.462;2023-03-01T12:46:48;6.00;99.90
31747;DHT22;18319;48.974;8.462;2023-03-01T12:49:21;6.00;99.90
31747;DHT22;18319;48.974;8.462;2023-03-01T12:51:54;6.00;99.90
31747;DHT22;18319;48.974;8.462;2023-03-01T12:54:27;6.00;99.90
31747;DHT22;18319;48.974;8.462;2023-03-01T12:56:55;6.10;99.90
31747;DHT22;18319;48.974;8.462;2023-03-01T12:59:28;6.20;99.90
31747;DHT22;18319;48.974;8.462;2023-03-01T13:02:03;6.20;99.90
31747;DHT22;18319;48.974;8.462;2023-03-01T13:04:40;6.20;99.90
31747;DHT22;18319;48.974;8.462;2023-03-01T13:07:18;6.20;99.90
31747;DHT22;18319;48.974;8.462;2023-03-01T13:09:52;6.20;99.90
31747;DHT22;18319;48.974;8.462;2023-03-01T13:12:48;6.20;99.90
31747;DHT22;18319;48.974;8.462;2023-03-01T13:15:35;6.30;99.90
31747;DHT22;18319;48.974;8.462;2023-03-01T13:18:28;6.30;99.90
31747;DHT22;18319;48.974;8.462;2023-03-01T13:20:56;6.20;99.90
31747;DHT22;18319;48.974;8.462;2023-03-01T13:23:28;6.20;99.90
31747;DHT22;18319;48.974;8.462;2023-03-01T13:26:10;6.20;99.90
31747;DHT22;18319;48.974;8.462;2023-03-01T13:28:41;6.20;99.90
31747;DHT22;18319;48.974;8.462;2023-03-01T13:31:09;6.20;99.90
31747;DHT22;18319;48.974;8.462;2023-03-01T13:33:43;6.30;99.90
31747;DHT22;18319;48.974;8.462;2023-03-01T13:36:11;6.30;99.90
31747;DHT22;18319;48.974;8.462;2023-03-01T13:38:46;6.40;99.90
31747;DHT22;18319;48.974;8.462;2023-03-01T13:41:16;6.40;99.70
31747;DHT22;18319;48.974;8.462;2023-03-01T13:43:44;6.40;99.90
31747;DHT22;18319;48.974;8.462;2023-03-01T13:46:17;6.40;99.90
31747;DHT22;18319;48.974;8.462;2023-03-01T13:48:49;6.50;99.90
31747;DHT22;18319;48.974;8.462;2023-03-01T13:51:21;6.50;99.90
31747;DHT22;18319;48.974;8.462;2023-03-01T13:53:49;6.50;99.90
31747;DHT22;18319;48.974;8.462;2023-03-01T13:56:18;6.60;99.90
31747;DHT22;18319;48.974;8.462;2023-03-01T13:58:52;6.60;99.00
31747;DHT22;18319;48.974;8.462;2023-03-01T14:01:26;6.60;98.60
31747;DHT22;18319;48.974;8.462;2023-03-01T14:03:55;6.60;98.90
31747;DHT22;18319;48.974;8.462;2023-03-01T14:06:24;6.70;99.70
31747;DHT22;18319;48.974;8.462;2023-03-01T14:09:04;6.70;99.10
31747;DHT22;18319;48.974;8.462;2023-03-01T14:11:56;6.70;99.00
31747;DHT22;18319;48.974;8.462;2023-03-01T14:14:39;6.80;99.40
31747;DHT22;18319;48.974;8.462;2023-03-01T14:19:58;6.80;98.60
31747;DHT22;18319;48.974;8.462;2023-03-01T14:22:28;6.80;99.20
31747;DHT22;18319;48.974;8.462;2023-03-01T14:24:57;6.90;98.90
31747;DHT22;18319;48.974;8.462;2023-03-01T14:27:35;6.90;98.30
31747;DHT22;18319;48.974;8.462;2023-03-01T14:30:12;6.80;98.10
31747;DHT22;18319;48.974;8.462;2023-03-01T14:32:41;6.80;98.70
31747;DHT22;18319;48.974;8.462;2023-03-01T14:35:19;6.80;98.20
31747;DHT22;18319;48.974;8.462;2023-03-01T14:37:47;6.80;99.40
31747;DHT22;18319;48.974;8.462;2023-03-01T14:40:23;6.90;99.00
31747;DHT22;18319;48.974;8.462;2023-03-01T14:42:51;6.80;99.10
31747;DHT22;18319;48.974;8.462;2023-03-01T14:45:18;6.80;98.10
31747;DHT22;18319;48.974;8.462;2023-03-01T14:47:45;6.80;98.50
31747;DHT22;18319;48.974;8.462;2023-03-01T14:50:23;6.80;98.40
31747;DHT22;18319;48.974;8.462;2023-03-01T14:52:53;6.80;98.40
31747;DHT22;18319;48.974;8.462;2023-03-01T14:55:22;6.80;98.60
31747;DHT22;18319;48.974;8.462;2023-03-01T14:57:52;6.80;98.20
31747;DHT22;18319;48.974;8.462;2023-03-01T15:00:21;6.80;98.90
31747;DHT22;18319;48.974;8.462;2023-03-01T15:02:49;6.80;97.70
31747;DHT22;18319;48.974;8.462;2023-03-01T15:05:22;6.80;97.80
31747;DHT22;18319;48.974;8.462;2023-03-01T15:07:49;6.70;97.80
31747;DHT22;18319;48.974;8.462;2023-03-01T15:10:21;6.80;97.60
31747;DHT22;18319;48.974;8.462;2023-03-01T15:12:48;6.80;97.60
31747;DHT22;18319;48.974;8.462;2023-03-01T15:15:36;6.70;98.10
31747;DHT22;18319;48.974;8.462;2023-03-01T15:18:13;6.80;98.20
31747;DHT22;18319;48.974;8.462;2023-03-01T15:20:42;6.70;97.40
31747;DHT22;18319;48.974;8.462;2023-03-01T15:23:19;6.70;97.80
31747;DHT22;18319;48.974;8.462;2023-03-01T15:25:47;6.70;97.80
31747;DHT22;18319;48.974;8.462;2023-03-01T15:28:24;6.70;97.70
31747;DHT22;18319;48.974;8.462;2023-03-01T15:31:00;6.60;97.70
31747;DHT22;18319;48.974;8.462;2023-03-01T15:33:30;6.60;97.20
31747;DHT22;18319;48.974;8.462;2023-03-01T15:36:00;6.60;97.30
31747;DHT22;18319;48.974;8.462;2023-03-01T15:38:32;6.60;97.30
31747;DHT22;18319;48.974;8.462;2023-03-01T15:41:01;6.60;96.90
31747;DHT22;18319;48.974;8.462;2023-03-01T15:43:43;6.50;96.70
31747;DHT22;18319;48.974;8.462;2023-03-01T15:46:18;6.50;97.30
31747;DHT22;18319;48.974;8.462;2023-03-01T15:48:48;6.40;97.20
31747;DHT22;18319;48.974;8.462;2023-03-01T15:51:22;6.40;97.50
31747;DHT22;18319;48.974;8.462;2023-03-01T15:53:51;6.40;97.80
31747;DHT22;18319;48.974;8.462;2023-03-01T15:56:18;6.30;97.80
31747;DHT22;18319;48.974;8.462;2023-03-01T15:58:45;6.30;97.10
31747;DHT22;18319;48.974;8.462;2023-03-01T16:01:13;6.30;97.30
31747;DHT22;18319;48.974;8.462;2023-03-01T16:03:41;6.30;97.50
31747;DHT22;18319;48.974;8.462;2023-03-01T16:06:09;6.20;98.10
31747;DHT22;18319;48.974;8.462;2023-03-01T16:08:37;6.20;98.10
31747;DHT22;18319;48.974;8.462;2023-03-01T16:11:10;6.20;97.60
31747;DHT22;18319;48.974;8.462;2023-03-01T16:13:39;6.20;97.30